createdAt,value
2022-12-23T00:04:05.307Z,4.26
2022-12-23T00:09:08.150Z,4.30
2022-12-23T00:14:29.673Z,4.31
2022-12-23T00:19:32.402Z,4.29
2022-12-23T00:24:35.103Z,4.36
2022-12-23T00:29:37.846Z,4.34
2022-12-23T00:34:40.972Z,4.31
2022-12-23T00:40:06.427Z,4.36
2022-12-23T00:45:16.087Z,4.41
2022-12-23T00:50:19.079Z,4.48
2022-12-23T00:55:23.987Z,4.51
2022-12-23T01:00:45.778Z,4.56
2022-12-23T01:05:48.580Z,4.66
2022-12-23T01:10:51.454Z,4.72
2022-12-23T01:16:03.759Z,4.75
2022-12-23T01:21:08.574Z,4.79
2022-12-23T01:26:11.588Z,4.82
2022-12-23T01:31:14.355Z,4.86
2022-12-23T01:36:17.201Z,4.88
2022-12-23T01:41:42.697Z,4.90
2022-12-23T01:46:46.342Z,4.96
2022-12-23T01:51:50.447Z,4.96
2022-12-23T01:56:54.344Z,4.96
2022-12-23T02:02:15.847Z,4.99
2022-12-23T02:07:38.105Z,5.00
2022-12-23T02:13:28.349Z,4.99
2022-12-23T02:19:01.862Z,5.02
2022-12-23T02:24:32.712Z,5.04
2022-12-23T02:30:18.850Z,5.05
2022-12-23T02:35:39.133Z,5.05
2022-12-23T02:41:06.949Z,5.02
2022-12-23T02:46:38.638Z,5.01
2022-12-23T02:51:48.200Z,5.05
2022-12-23T02:56:51.080Z,5.03
2022-12-23T03:01:54.221Z,5.00
2022-12-23T03:06:57.099Z,5.06
2022-12-23T03:12:18.208Z,5.08
2022-12-23T03:17:28.612Z,5.09
2022-12-23T03:22:37.177Z,5.13
2022-12-23T03:27:57.399Z,5.16
2022-12-23T03:33:13.438Z,5.14
2022-12-23T03:38:16.957Z,5.17
2022-12-23T03:43:24.721Z,5.23
2022-12-23T03:48:39.738Z,5.27
2022-12-23T03:53:49.458Z,5.27
2022-12-23T03:58:59.109Z,5.30
2022-12-23T04:04:29.169Z,5.35
2022-12-23T04:09:32.242Z,5.37
2022-12-23T04:14:35.933Z,5.41
2022-12-23T04:19:38.819Z,5.45
2022-12-23T04:24:42.016Z,5.44
2022-12-23T04:29:44.989Z,5.43
2022-12-23T04:34:47.997Z,5.44
2022-12-23T04:39:50.723Z,5.42
2022-12-23T04:44:53.478Z,5.43
2022-12-23T04:49:56.234Z,5.39
2022-12-23T04:54:58.949Z,5.37
2022-12-23T05:00:04.108Z,5.36
2022-12-23T05:05:07.344Z,5.33
2022-12-23T05:10:10.728Z,5.34
2022-12-23T05:15:13.781Z,5.37
2022-12-23T05:20:17.993Z,5.38
2022-12-23T05:25:20.813Z,5.36
2022-12-23T05:30:23.536Z,5.32
2022-12-23T05:35:26.991Z,5.31
2022-12-23T05:40:33.580Z,5.27
2022-12-23T05:45:37.113Z,5.23
2022-12-23T05:50:39.999Z,5.24
2022-12-23T05:55:42.776Z,5.19
2022-12-23T06:00:45.554Z,5.18
2022-12-23T06:05:51.985Z,5.18
2022-12-23T06:10:54.802Z,5.18
2022-12-23T06:15:57.557Z,5.15
2022-12-23T06:21:00.331Z,5.14
2022-12-23T06:26:03.510Z,5.12
2022-12-23T06:31:06.449Z,5.04
2022-12-23T06:36:09.518Z,4.98
2022-12-23T06:41:12.386Z,4.93
2022-12-23T06:46:15.170Z,4.91
2022-12-23T06:51:17.988Z,4.91
2022-12-23T06:56:20.726Z,4.91
2022-12-23T07:01:23.467Z,4.89
2022-12-23T07:06:26.265Z,4.85
2022-12-23T07:11:29.188Z,4.86
2022-12-23T07:16:31.950Z,4.88
2022-12-23T07:21:36.697Z,4.90
2022-12-23T07:26:39.476Z,4.95
2022-12-23T07:31:42.458Z,4.95
2022-12-23T07:36:45.216Z,4.95
2022-12-23T07:41:47.941Z,4.97
2022-12-23T07:46:50.805Z,4.97
2022-12-23T07:51:53.981Z,4.95
2022-12-23T07:56:58.182Z,4.96
2022-12-23T08:02:01.097Z,4.92
2022-12-23T08:07:03.905Z,4.87
2022-12-23T08:12:06.998Z,4.77
2022-12-23T08:17:09.767Z,4.76
2022-12-23T08:22:12.692Z,4.78
2022-12-23T08:27:16.365Z,4.79
2022-12-23T08:32:19.251Z,4.80
2022-12-23T08:37:23.053Z,4.84
2022-12-23T08:42:25.871Z,4.92
2022-12-23T08:47:28.604Z,4.92
2022-12-23T08:52:32.748Z,5.02
2022-12-23T08:57:35.497Z,5.08
2022-12-23T09:02:38.592Z,5.15
2022-12-23T09:07:41.587Z,5.20
2022-12-23T09:12:44.330Z,5.29
2022-12-23T09:17:47.096Z,5.32
2022-12-23T09:22:50.837Z,5.33
2022-12-23T09:27:53.606Z,5.34
2022-12-23T09:32:56.377Z,5.35
2022-12-23T09:37:59.317Z,5.41
2022-12-23T09:43:32.858Z,5.52
2022-12-23T09:48:46.097Z,5.62
2022-12-23T09:54:20.074Z,5.69
2022-12-23T09:59:28.453Z,5.74
2022-12-23T10:04:42.249Z,5.79
2022-12-23T10:09:46.518Z,5.81
2022-12-23T10:14:49.426Z,5.82
2022-12-23T10:19:52.263Z,5.80
2022-12-23T10:24:55.744Z,5.77
2022-12-23T10:30:19.993Z,5.74
2022-12-23T10:35:52.724Z,5.69
2022-12-23T10:41:11.446Z,5.60
2022-12-23T10:47:00.902Z,5.54
2022-12-23T10:52:09.490Z,5.48
2022-12-23T10:57:12.496Z,5.46
2022-12-23T11:02:15.345Z,5.41
2022-12-23T11:07:43.954Z,5.44
2022-12-23T11:12:52.967Z,5.48
2022-12-23T11:18:14.345Z,5.47
2022-12-23T11:23:29.080Z,5.42
2022-12-23T11:28:32.160Z,5.42
2022-12-23T11:33:41.146Z,5.51
2022-12-23T11:39:12.264Z,5.45
2022-12-23T11:44:28.811Z,5.47
2022-12-23T11:49:32.103Z,5.50
2022-12-23T11:54:35.360Z,5.43
2022-12-23T11:59:43.483Z,5.38
2022-12-23T12:04:55.380Z,5.38
2022-12-23T12:09:59.439Z,5.42
2022-12-23T12:15:02.219Z,5.37
2022-12-23T12:20:14.845Z,5.35
2022-12-23T12:25:31.349Z,5.34
2022-12-23T12:30:50.666Z,5.27
2022-12-23T12:36:05.090Z,5.27
2022-12-23T12:41:43.817Z,5.21
2022-12-23T12:46:49.923Z,5.15
2022-12-23T12:52:08.369Z,5.12
2022-12-23T12:57:19.664Z,5.10
2022-12-23T13:02:47.266Z,5.11
2022-12-23T13:08:15.246Z,5.04
2022-12-23T13:13:54.973Z,5.03
2022-12-23T13:19:31.968Z,5.02
2022-12-23T13:24:48.191Z,5.05
2022-12-23T13:30:18.980Z,5.09
2022-12-23T13:35:46.732Z,5.09
2022-12-23T13:41:16.393Z,5.09
2022-12-23T13:46:43.501Z,5.14
2022-12-23T13:52:16.420Z,5.16
2022-12-23T13:58:13.595Z,5.15
2022-12-23T14:03:24.402Z,5.20
2022-12-23T14:08:41.283Z,5.23
2022-12-23T14:13:55.319Z,5.23
2022-12-23T14:19:37.999Z,5.27
2022-12-23T14:25:05.201Z,5.34
2022-12-23T14:30:16.988Z,5.44
2022-12-23T14:35:27.147Z,5.46
2022-12-23T14:40:39.289Z,5.45
2022-12-23T14:45:42.731Z,5.46
2022-12-23T14:50:59.018Z,5.49
2022-12-23T14:56:08.004Z,5.45
2022-12-23T15:01:42.112Z,5.47
2022-12-23T15:07:00.266Z,5.50
2022-12-23T15:12:11.915Z,5.54
2022-12-23T15:17:35.504Z,5.61
2022-12-23T15:22:39.121Z,5.69
2022-12-23T15:27:41.859Z,5.75
2022-12-23T15:32:48.131Z,5.79
2022-12-23T15:37:51.498Z,5.82
2022-12-23T15:42:54.547Z,5.83
2022-12-23T15:47:57.312Z,5.87
2022-12-23T15:53:04.336Z,5.91
2022-12-23T15:58:07.141Z,5.92
2022-12-23T16:03:34.221Z,5.93
2022-12-23T16:08:38.064Z,5.94
2022-12-23T16:13:47.870Z,5.96
2022-12-23T16:18:52.279Z,5.97
2022-12-23T16:23:55.520Z,6.00
2022-12-23T16:28:59.409Z,6.00
2022-12-23T16:34:05.279Z,6.00
2022-12-23T16:39:20.250Z,6.01
2022-12-23T16:44:23.076Z,6.01
2022-12-23T16:49:34.005Z,6.05
2022-12-23T16:54:37.162Z,6.09
2022-12-23T16:59:41.261Z,6.08
2022-12-23T17:04:44.412Z,6.11
2022-12-23T17:09:47.216Z,6.15
2022-12-23T17:14:50.067Z,6.19
2022-12-23T17:19:52.852Z,6.22
2022-12-23T17:24:55.617Z,6.25
2022-12-23T17:29:58.354Z,6.30
2022-12-23T17:35:01.135Z,6.34
2022-12-23T17:40:04.544Z,6.36
2022-12-23T17:45:25.458Z,6.37
2022-12-23T17:50:28.327Z,6.40
2022-12-23T17:55:34.714Z,6.42
2022-12-23T18:00:38.586Z,6.43
2022-12-23T18:05:41.417Z,6.43
2022-12-23T18:10:44.544Z,6.45
2022-12-23T18:15:47.782Z,6.44
2022-12-23T18:20:53.600Z,6.48
2022-12-23T18:25:56.787Z,6.49
2022-12-23T18:30:59.618Z,6.51
2022-12-23T18:36:02.398Z,6.51
2022-12-23T18:41:05.199Z,6.51
2022-12-23T18:46:08.493Z,6.49
2022-12-23T18:51:16.413Z,6.47
2022-12-23T18:56:21.368Z,6.49
2022-12-23T19:01:24.451Z,6.46
2022-12-23T19:06:27.288Z,6.46
2022-12-23T19:11:30.153Z,6.43
2022-12-23T19:16:32.940Z,6.42
2022-12-23T19:21:36.039Z,6.45
2022-12-23T19:26:38.773Z,6.37
2022-12-23T19:31:41.724Z,6.31
2022-12-23T19:36:45.594Z,6.27
2022-12-23T19:41:51.471Z,6.20
2022-12-23T19:46:54.376Z,6.12
2022-12-23T19:51:57.285Z,6.08
2022-12-23T19:57:00.255Z,6.04
2022-12-23T20:02:03.110Z,6.03
2022-12-23T20:07:05.886Z,6.01
2022-12-23T20:12:10.961Z,6.02
2022-12-23T20:17:13.724Z,5.91
2022-12-23T20:22:16.848Z,5.85
2022-12-23T20:27:25.984Z,5.79
2022-12-23T20:32:30.606Z,5.69
2022-12-23T20:37:33.333Z,5.64
2022-12-23T20:42:36.682Z,5.65
2022-12-23T20:47:39.667Z,5.63
2022-12-23T20:52:42.463Z,5.66
2022-12-23T20:57:45.743Z,5.63
2022-12-23T21:02:48.568Z,5.66
2022-12-23T21:07:51.772Z,5.72
2022-12-23T21:12:54.501Z,5.76
2022-12-23T21:17:57.209Z,5.74
2022-12-23T21:22:59.965Z,5.75
2022-12-23T21:28:02.699Z,5.65
2022-12-23T21:33:05.459Z,5.58
2022-12-23T21:38:08.235Z,5.63
2022-12-23T21:43:11.268Z,5.64
2022-12-23T21:48:14.337Z,5.55
2022-12-23T21:53:17.101Z,5.51
2022-12-23T21:58:20.401Z,5.55
2022-12-23T22:03:23.651Z,5.52
2022-12-23T22:08:26.381Z,5.56
2022-12-23T22:13:29.109Z,5.36
2022-12-23T22:18:31.936Z,5.25
2022-12-23T22:23:35.798Z,5.24
2022-12-23T22:28:39.329Z,5.29
2022-12-23T22:33:42.110Z,5.29
2022-12-23T22:38:44.817Z,5.35
2022-12-23T22:43:47.679Z,5.37
2022-12-23T22:48:51.290Z,5.34
2022-12-23T22:53:54.479Z,5.31
2022-12-23T22:58:57.273Z,5.26
2022-12-23T23:04:01.204Z,5.29
2022-12-23T23:09:05.786Z,5.31
2022-12-23T23:14:08.724Z,5.37
2022-12-23T23:19:12.380Z,5.41
2022-12-23T23:24:15.111Z,5.40
2022-12-23T23:29:17.923Z,5.22
2022-12-23T23:34:20.655Z,5.12
2022-12-23T23:39:23.330Z,5.10
2022-12-23T23:44:26.051Z,5.26
2022-12-23T23:49:29.730Z,5.28
2022-12-23T23:54:32.450Z,5.20
2022-12-23T23:59:37.528Z,5.08
